TimePDT,TemperatureF,Dew PointF,Humidity,Sea Level PressureIn,VisibilityMPH,Wind Direction,Wind SpeedMPH,Gust SpeedMPH,PrecipitationIn,Events,Conditions,WindDirDegrees,DateUTC
12:56 AM,84.9,42.1,22,29.94,10.0,WSW,15.0,-,N/A,,Clear,240,2012-10-04 07:56:00
1:56 AM,84.0,37.0,19,29.94,10.0,WSW,15.0,-,N/A,,Clear,250,2012-10-04 08:56:00
2:56 AM,84.0,34.0,17,29.93,10.0,WSW,21.9,26.5,N/A,,Clear,250,2012-10-04 09:56:00
3:56 AM,84.0,33.1,16,29.93,10.0,West,18.4,-,N/A,,Clear,260,2012-10-04 10:56:00
4:56 AM,82.9,34.0,17,29.94,10.0,West,20.7,-,N/A,,Clear,260,2012-10-04 11:56:00
5:56 AM,82.9,35.1,18,29.96,10.0,WSW,17.3,-,N/A,,Clear,250,2012-10-04 12:56:00
6:56 AM,79.0,35.1,20,29.97,10.0,West,10.4,-,N/A,,Scattered Clouds,270,2012-10-04 13:56:00
7:56 AM,82.0,37.0,20,29.99,10.0,West,10.4,-,N/A,,Scattered Clouds,270,2012-10-04 14:56:00
8:56 AM,89.1,37.0,16,30.00,10.0,West,10.4,-,N/A,,Scattered Clouds,270,2012-10-04 15:56:00
9:56 AM,93.0,34.0,12,30.00,10.0,WSW,15.0,-,N/A,,Scattered Clouds,250,2012-10-04 16:56:00
10:56 AM,96.1,34.0,11,30.00,10.0,West,13.8,-,N/A,,Partly Cloudy,270,2012-10-04 17:56:00
11:56 AM,97.0,34.0,11,29.99,10.0,South,10.4,-,N/A,,Partly Cloudy,180,2012-10-04 18:56:00
12:56 PM,98.1,37.0,12,29.96,10.0,South,5.8,-,N/A,,Partly Cloudy,170,2012-10-04 19:56:00
1:56 PM,100.9,30.0,8,29.93,10.0,SW,8.1,18.4,N/A,,Partly Cloudy,230,2012-10-04 20:56:00
2:56 PM,102.0,30.0,8,29.91,10.0,West,8.1,-,N/A,,Scattered Clouds,260,2012-10-04 21:56:00
3:56 PM,100.9,32.0,9,29.89,10.0,SW,12.7,-,N/A,,Scattered Clouds,230,2012-10-04 22:56:00
4:56 PM,98.1,37.9,12,29.89,10.0,SW,11.5,-,N/A,,Scattered Clouds,230,2012-10-04 23:56:00
5:56 PM,95.0,41.0,15,29.90,10.0,WSW,16.1,-,N/A,,Scattered Clouds,240,2012-10-05 00:56:00
6:56 PM,90.0,37.0,15,29.91,10.0,SW,12.7,-,N/A,,Partly Cloudy,230,2012-10-05 01:56:00
7:56 PM,87.1,34.0,15,29.93,10.0,WSW,17.3,-,N/A,,Partly Cloudy,240,2012-10-05 02:56:00
8:56 PM,84.9,34.0,16,29.93,10.0,WSW,17.3,-,N/A,,Partly Cloudy,250,2012-10-05 03:56:00
9:56 PM,84.0,39.0,20,29.94,10.0,WSW,18.4,-,N/A,,Partly Cloudy,250,2012-10-05 04:56:00
10:56 PM,82.0,37.9,21,29.95,10.0,WSW,11.5,-,N/A,,Partly Cloudy,250,2012-10-05 05:56:00
11:56 PM,81.0,35.1,19,29.94,10.0,WSW,12.7,-,N/A,,Clear,250,2012-10-05 06:56:00